This is the latest recevied weather packets stored in our database for station/object IV3CGM-13. If no packets are shown the sender has not sent any weather packets the latest 10 day(s).
| Time | Temp. | Humidity | Pressure | Rain* | Wind** | Luminosity | Snow |
|---|---|---|---|---|---|---|---|
| 1777637791 | 18.33° C | 28% | 1025.4 hPa | 0 mm | - | 803 W/m² | - |
| 1777637055 | 17.78° C | 28% | 1025.6 hPa | 0 mm | - | 812 W/m² | - |
| 1777636354 | 17.22° C | 29% | 1025.6 hPa | 0 mm | - | 816 W/m² | - |
| 1777635666 | 17.22° C | 31% | 1025.7 hPa | 0 mm | - | 825 W/m² | - |
| 1777634979 | 17.22° C | 30% | 1025.8 hPa | 0 mm | - | 832 W/m² | - |
| 1777634291 | 17.22° C | 31% | 1026 hPa | 0 mm | - | 845 W/m² | - |
| 1777633555 | 17.22° C | 30% | 1026.1 hPa | 0 mm | - | 853 W/m² | - |
| 1777632854 | 16.67° C | 33% | 1026.3 hPa | 0 mm | - | 850 W/m² | - |
| 1777632166 | 16.11° C | 31% | 1026.4 hPa | 0 mm | - | 853 W/m² | - |
| 1777631479 | 16.11° C | 31% | 1026.5 hPa | 0 mm | - | 847 W/m² | - |
| 1777630792 | 16.11° C | 34% | 1026.6 hPa | 0 mm | - | 834 W/m² | - |
| 1777630055 | 15.56° C | 32% | 1026.7 hPa | 0 mm | - | 822 W/m² | - |
| 1777629354 | 16.11° C | 31% | 1026.8 hPa | 0 mm | - | 800 W/m² | - |
| 1777628666 | 15.56° C | 33% | 1026.8 hPa | 0 mm | - | 779 W/m² | - |
| 1777627980 | 15.56° C | 31% | 1026.9 hPa | 0 mm | - | 763 W/m² | - |
| 1777627291 | 15.56° C | 32% | 1027 hPa | 0 mm | - | 740 W/m² | - |
| 1777626554 | 15° C | 33% | 1027.1 hPa | 0 mm | - | 713 W/m² | - |
| 1777625853 | 15° C | 36% | 1027.2 hPa | 0 mm | - | 711 W/m² | - |
| 1777625166 | 15° C | 32% | 1027.3 hPa | 0 mm | - | 689 W/m² | - |
| 1777624479 | 15° C | 33% | 1027.3 hPa | 0 mm | - | 669 W/m² | - |
| 1777623791 | 15° C | 34% | 1027.2 hPa | 0 mm | - | 646 W/m² | - |
| 1777623055 | 13.89° C | 35% | 1027.1 hPa | 0 mm | - | 613 W/m² | - |
| 1777622353 | 13.89° C | 35% | 1027.1 hPa | 0 mm | - | 581 W/m² | - |
| 1777621666 | 13.89° C | 37% | 1027.2 hPa | 0 mm | - | 541 W/m² | - |
| 1777620978 | 13.33° C | 38% | 1027.1 hPa | 0 mm | - | 499 W/m² | - |
* Rain latest hour (hover to see other rain measurements)
** Current wind speed in m/s (hover to see current wind gust speed)